To NAV CANADA Home Page Login to a new session Search on AWWS site Feedback and Comments Disclaimer Vers la page française équivalente Tips FAQ What's new on the site To the Forecasts and Observations / NOTAM section To "File a Flight Plan" website Publications and other links Update of the User's profile FIC Telephone Numbers My Weather Data Folder Route Weather Data Regional Weather Data Local Weather Data To the Forecasts and Observations / NOTAM section
Request Generated 04/24/2014 at 17:59:52 UTC . Weather information available at that time is displayed.

METAR/TAF

KITCHENER/WATERLOO/ON    (show WxCam)

METAR CYKF 241700Z AUTO VRB02KT 9SM CLR 10/M09 A3013 RMK SLP213=
METAR CYKF 241600Z AUTO 30008KT 260V360 9SM CLR 09/M09 A3015 RMK
SLP217=
METAR CYKF 241500Z AUTO 33009KT 290V020 9SM CLR 08/M09 A3015 RMK
SLP220=

TAF CYKF 241339Z 2414/2502 VRB03KT P6SM SCT160
BECMG 2414/2416 30006KT
FM241900 34008KT P6SM BKN120
BECMG 2421/2423 VRB03KT
RMK FCST BASED ON AUTO OBS. NXT FCST BY 242000Z=
Your time UTC time
Weather data provided by Environment Canada and NAV CANADA